Time;durP1;ratioP1;P1;durP2;ratioP2;P2;SDS_P1;SDS_P2;PMS_P1;PMS_P2;Temp;Humidity;BMP_temperature;BMP_pressure;BME280_temperature;BME280_humidity;BME280_pressure;Samples;Min_cycle;Max_cycle;Signal;HPM_P1;HPM_P2
2023/12/01 00:01:54;;;;;;;41.73;19.23;;;4.40;99.90;;;;;;5031224;28;20488;-85
2023/12/01 00:04:21;;;;;;;38.93;19.60;;;4.40;99.90;;;;;;5018717;28;20476;-85
2023/12/01 00:06:48;;;;;;;47.30;20.30;;;4.40;99.90;;;;;;5015325;28;21199;-86
2023/12/01 00:09:17;;;;;;;36.70;18.13;;;4.30;99.90;;;;;;4997261;28;21190;-86
2023/12/01 00:11:44;;;;;;;36.27;19.47;;;4.50;99.90;;;;;;5013888;28;20512;-85
2023/12/01 00:14:11;;;;;;;39.90;18.40;;;4.50;99.90;;;;;;5017903;28;20542;-86
2023/12/01 00:16:38;;;;;;;63.20;20.10;;;4.50;99.90;;;;;;5033867;28;20484;-86
2023/12/01 00:19:05;;;;;;;42.00;22.10;;;4.50;99.90;;;;;;5032004;28;20535;-85
2023/12/01 00:21:32;;;;;;;48.57;22.57;;;4.60;99.90;;;;;;5031236;28;20481;-86
2023/12/01 00:23:59;;;;;;;55.33;24.83;;;4.60;99.90;;;;;;5030442;28;20559;-87
2023/12/01 00:26:27;;;;;;;53.37;23.03;;;4.60;99.90;;;;;;5020140;28;21013;-85
2023/12/01 00:28:54;;;;;;;44.97;23.40;;;4.60;99.90;;;;;;5027617;28;20539;-85
2023/12/01 00:31:21;;;;;;;63.13;25.57;;;4.60;99.90;;;;;;5038107;28;20609;-87
2023/12/01 00:33:48;;;;;;;56.20;21.60;;;4.50;99.90;;;;;;5022374;28;21110;-85
2023/12/01 00:36:15;;;;;;;41.70;20.53;;;4.50;99.90;;;;;;5030860;28;20534;-85
2023/12/01 00:38:42;;;;;;;39.67;20.17;;;4.50;99.90;;;;;;5018191;28;20815;-85
2023/12/01 00:41:09;;;;;;;40.83;19.50;;;4.50;99.90;;;;;;5040517;28;20564;-86
2023/12/01 00:43:38;;;;;;;41.53;21.50;;;4.50;99.90;;;;;;5029299;28;20480;-86
2023/12/01 00:46:05;;;;;;;47.37;19.00;;;4.50;99.90;;;;;;5039683;28;20488;-87
2023/12/01 00:48:32;;;;;;;56.33;19.93;;;4.50;99.90;;;;;;5008044;28;20484;-86
2023/12/01 00:50:59;;;;;;;47.77;21.60;;;4.50;99.90;;;;;;5022560;28;20566;-86
2023/12/01 00:53:26;;;;;;;36.67;18.20;;;4.50;99.90;;;;;;5010771;28;20481;-85
2023/12/01 00:55:53;;;;;;;39.00;20.00;;;4.50;99.90;;;;;;5032921;28;20475;-85
2023/12/01 00:58:20;;;;;;;50.43;19.50;;;4.60;99.90;;;;;;5024964;28;20950;-86
2023/12/01 01:00:48;;;;;;;42.80;20.90;;;4.60;99.90;;;;;;5023464;28;21032;-85
2023/12/01 01:03:15;;;;;;;33.50;18.20;;;4.60;99.90;;;;;;5019475;28;20878;-86
2023/12/01 01:05:42;;;;;;;35.63;19.03;;;4.60;99.90;;;;;;5017751;28;20478;-86
2023/12/01 01:08:09;;;;;;;35.40;18.57;;;4.70;99.90;;;;;;5029097;28;20484;-85
2023/12/01 01:10:36;;;;;;;33.50;16.93;;;4.70;99.90;;;;;;5024427;28;20485;-85
2023/12/01 01:13:03;;;;;;;36.80;18.60;;;4.70;99.90;;;;;;5025293;28;20476;-86
2023/12/01 01:15:30;;;;;;;36.80;18.40;;;4.70;99.90;;;;;;5030580;28;20480;-85
2023/12/01 01:17:59;;;;;;;35.70;20.60;;;4.80;99.90;;;;;;5028371;28;20487;-86
2023/12/01 01:20:26;;;;;;;46.23;20.50;;;4.80;99.90;;;;;;5022068;28;20473;-86
2023/12/01 01:22:53;;;;;;;34.03;19.20;;;4.80;99.90;;;;;;5018833;28;20495;-85
2023/12/01 01:25:20;;;;;;;58.13;19.80;;;4.80;99.90;;;;;;5040267;28;20871;-86
2023/12/01 01:27:47;;;;;;;43.17;19.37;;;4.80;99.90;;;;;;5007992;28;20491;-86
2023/12/01 01:30:14;;;;;;;26.03;15.30;;;4.80;99.90;;;;;;5034291;28;20476;-86
2023/12/01 01:32:41;;;;;;;41.97;17.73;;;4.80;99.90;;;;;;5022156;28;21299;-86
2023/12/01 01:35:10;;;;;;;62.97;19.67;;;4.80;99.90;;;;;;5023230;28;21047;-85
2023/12/01 01:37:37;;;;;;;44.83;19.80;;;4.70;99.90;;;;;;5017541;28;20484;-86
2023/12/01 01:40:05;;;;;;;39.33;18.40;;;4.70;99.90;;;;;;5023715;28;20525;-85
2023/12/01 01:42:32;;;;;;;38.00;19.17;;;4.60;99.90;;;;;;5024185;28;20483;-86
2023/12/01 01:44:59;;;;;;;32.17;17.50;;;4.60;99.90;;;;;;5032688;28;21251;-85
2023/12/01 01:47:26;;;;;;;48.80;22.23;;;4.50;99.90;;;;;;5031131;28;21012;-85
2023/12/01 01:49:54;;;;;;;36.00;21.47;;;4.50;99.90;;;;;;5026574;28;20544;-85
2023/12/01 01:52:23;;;;;;;45.63;23.60;;;4.50;99.90;;;;;;5031616;28;20480;-85
2023/12/01 01:54:50;;;;;;;52.53;23.17;;;4.50;99.90;;;;;;5037973;28;20473;-86
2023/12/01 01:57:17;;;;;;;37.33;19.07;;;4.50;99.90;;;;;;5027047;28;20476;-85
2023/12/01 01:59:44;;;;;;;59.90;22.47;;;;;;;;;;5026653;28;20488;-86
2023/12/01 02:02:11;;;;;;;34.87;18.20;;;4.60;99.90;;;;;;5020925;28;20483;-86
2023/12/01 02:04:38;;;;;;;35.43;18.47;;;4.60;99.90;;;;;;5029455;28;20488;-86
2023/12/01 02:07:05;;;;;;;48.93;20.00;;;4.50;99.90;;;;;;5024667;28;20484;-86
2023/12/01 02:09:36;;;;;;;44.47;20.33;;;4.50;99.90;;;;;;5026613;28;20468;-86
2023/12/01 02:12:03;;;;;;;33.23;17.60;;;4.50;99.90;;;;;;5030325;28;20480;-85
2023/12/01 02:14:30;;;;;;;35.57;19.37;;;4.50;99.90;;;;;;5025578;28;20485;-86
2023/12/01 02:16:57;;;;;;;33.00;17.23;;;4.50;99.90;;;;;;5038241;28;20538;-85
2023/12/01 02:19:24;;;;;;;37.13;19.73;;;4.50;99.90;;;;;;5017609;28;20576;-85
2023/12/01 02:21:54;;;;;;;36.17;18.47;;;4.50;99.90;;;;;;5020300;28;20471;-86
2023/12/01 02:24:21;;;;;;;46.13;19.87;;;4.50;99.90;;;;;;5016795;28;20476;-86
2023/12/01 02:26:48;;;;;;;37.67;20.13;;;4.50;99.90;;;;;;5018330;28;20473;-87
2023/12/01 02:29:14;;;;;;;47.73;20.77;;;4.60;99.90;;;;;;5031683;28;21034;-85
2023/12/01 02:31:41;;;;;;;35.53;18.07;;;4.60;99.90;;;;;;5022719;28;21163;-85
2023/12/01 02:34:09;;;;;;;71.07;20.33;;;;;;;;;;5027211;28;21067;-85
2023/12/01 02:36:36;;;;;;;36.07;18.37;;;4.70;99.90;;;;;;5024169;28;20475;-85
2023/12/01 02:39:07;;;;;;;40.30;20.00;;;4.70;99.90;;;;;;5023861;28;20480;-85
2023/12/01 02:41:34;;;;;;;41.23;17.83;;;4.70;99.90;;;;;;5023959;28;20475;-84
2023/12/01 02:44:01;;;;;;;68.90;23.30;;;4.70;99.90;;;;;;5029280;28;20483;-86
2023/12/01 02:46:27;;;;;;;35.73;20.63;;;4.70;99.90;;;;;;5024815;28;20476;-85
2023/12/01 02:48:54;;;;;;;36.90;18.77;;;4.70;99.90;;;;;;5033910;28;20479;-86
2023/12/01 02:51:23;;;;;;;33.67;19.00;;;4.60;99.90;;;;;;5027437;28;20483;-85
2023/12/01 02:53:50;;;;;;;60.03;20.80;;;4.60;99.90;;;;;;5027655;28;20550;-85
2023/12/01 02:56:18;;;;;;;40.93;21.43;;;4.60;99.90;;;;;;5026703;28;20492;-85
2023/12/01 02:58:45;;;;;;;35.60;18.63;;;4.60;99.90;;;;;;5028885;28;21271;-86
2023/12/01 03:01:12;;;;;;;39.27;19.30;;;4.60;99.90;;;;;;5029593;28;20473;-84
2023/12/01 03:03:40;;;;;;;50.30;21.70;;;4.60;99.90;;;;;;5032040;28;20489;-85
2023/12/01 03:06:07;;;;;;;39.83;20.47;;;4.60;99.90;;;;;;5016768;28;20571;-86
2023/12/01 03:08:34;;;;;;;52.80;19.60;;;4.60;99.90;;;;;;5027901;28;21043;-85
2023/12/01 03:11:06;;;;;;;37.83;18.87;;;4.60;99.90;;;;;;5018778;28;20563;-85
2023/12/01 03:13:34;;;;;;;36.60;18.27;;;4.60;99.90;;;;;;5017510;28;21218;-85
2023/12/01 03:16:01;;;;;;;41.73;21.50;;;4.60;99.90;;;;;;5020900;28;20497;-85
2023/12/01 03:18:28;;;;;;;44.73;19.23;;;4.60;99.90;;;;;;5026652;28;20480;-86
2023/12/01 03:20:55;;;;;;;43.00;20.60;;;4.60;99.90;;;;;;5033954;28;20506;-85
2023/12/01 03:23:22;;;;;;;40.33;20.07;;;4.60;99.90;;;;;;5002348;28;21012;-85
2023/12/01 03:25:49;;;;;;;40.67;21.93;;;4.70;99.90;;;;;;5027582;28;20479;-86
2023/12/01 03:28:16;;;;;;;53.37;25.67;;;4.60;99.90;;;;;;5019548;28;20540;-85
2023/12/01 03:30:47;;;;;;;36.00;21.60;;;4.70;99.90;;;;;;5024104;28;20492;-86
2023/12/01 03:33:14;;;;;;;43.87;22.13;;;4.70;99.90;;;;;;5025758;28;20488;-86
2023/12/01 03:35:41;;;;;;;41.40;22.70;;;4.70;99.90;;;;;;5023356;28;20490;-85
2023/12/01 03:38:08;;;;;;;58.50;24.03;;;4.80;99.90;;;;;;5029028;28;20615;-86
2023/12/01 03:40:35;;;;;;;43.50;21.47;;;4.70;99.90;;;;;;5018992;28;20489;-85
2023/12/01 03:43:02;;;;;;;68.57;26.93;;;4.70;99.90;;;;;;5024457;28;20982;-86
2023/12/01 03:45:28;;;;;;;54.03;29.00;;;4.80;99.90;;;;;;5030309;28;20493;-85
2023/12/01 03:47:57;;;;;;;68.63;32.53;;;4.70;99.90;;;;;;5022658;28;20484;-86
2023/12/01 03:50:24;;;;;;;57.30;24.87;;;4.90;99.90;;;;;;5021082;28;20553;-85
2023/12/01 03:52:51;;;;;;;72.73;31.20;;;4.80;99.90;;;;;;5029379;28;21133;-85
2023/12/01 03:55:18;;;;;;;61.47;27.07;;;4.70;99.90;;;;;;5036276;28;21041;-85
2023/12/01 03:57:46;;;;;;;39.17;21.30;;;4.70;99.90;;;;;;5036503;28;21212;-84
2023/12/01 04:00:16;;;;;;;37.70;20.73;;;4.70;99.90;;;;;;5023188;28;20477;-85
2023/12/01 04:02:46;;;;;;;41.50;21.60;;;4.70;99.90;;;;;;5019801;28;20565;-85
2023/12/01 04:05:17;;;;;;;45.10;21.33;;;4.70;99.90;;;;;;5028265;28;20484;-85
2023/12/01 04:07:46;;;;;;;51.37;20.70;;;4.70;99.90;;;;;;5023597;28;20507;-85
2023/12/01 04:10:13;;;;;;;58.43;24.90;;;4.70;99.90;;;;;;5024907;28;20825;-85
2023/12/01 04:12:44;;;;;;;38.90;22.20;;;4.70;99.90;;;;;;5033584;28;20574;-86
2023/12/01 04:15:12;;;;;;;61.73;25.83;;;4.70;99.90;;;;;;5029063;28;20515;-86
2023/12/01 04:17:42;;;;;;;56.67;23.73;;;4.80;99.90;;;;;;5030991;28;20898;-85
2023/12/01 04:20:20;;;;;;;42.70;21.17;;;4.80;99.90;;;;;;5024560;28;20502;-85
2023/12/01 04:22:51;;;;;;;44.00;21.93;;;4.70;99.90;;;;;;5017867;28;20479;-85
2023/12/01 04:25:18;;;;;;;45.50;21.40;;;4.70;99.90;;;;;;5021566;28;20921;-85
2023/12/01 04:27:46;;;;;;;40.27;21.80;;;4.70;99.90;;;;;;5019469;28;20616;-85
2023/12/01 04:30:15;;;;;;;42.20;20.93;;;4.70;99.90;;;;;;5027536;28;20484;-85
2023/12/01 04:32:43;;;;;;;39.53;22.43;;;4.80;99.90;;;;;;5032180;28;21043;-85
2023/12/01 04:35:12;;;;;;;46.00;22.70;;;4.80;99.90;;;;;;5023303;28;20551;-85
2023/12/01 04:37:40;;;;;;;43.57;23.90;;;4.80;99.90;;;;;;5018029;28;20489;-85
2023/12/01 04:40:14;;;;;;;56.30;24.67;;;4.80;99.90;;;;;;5000346;28;20992;-85
2023/12/01 04:42:43;;;;;;;51.90;23.27;;;4.80;99.90;;;;;;5033689;28;20476;-85
2023/12/01 04:45:12;;;;;;;57.73;23.27;;;4.80;99.90;;;;;;5024832;28;20488;-85
2023/12/01 04:47:40;;;;;;;46.13;22.97;;;4.80;99.90;;;;;;5033365;28;20477;-86
2023/12/01 04:50:12;;;;;;;45.63;20.20;;;4.80;99.90;;;;;;5023144;28;20481;-84
2023/12/01 04:52:41;;;;;;;53.37;21.47;;;4.80;99.90;;;;;;5027060;28;20476;-84
2023/12/01 04:55:13;;;;;;;39.70;23.60;;;4.80;99.90;;;;;;5029987;28;20970;-85
2023/12/01 04:57:40;;;;;;;48.37;22.80;;;4.80;99.90;;;;;;5031546;28;20996;-85
2023/12/01 05:00:19;;;;;;;48.97;23.40;;;4.80;99.90;;;;;;5029533;28;20476;-86
2023/12/01 05:02:47;;;;;;;50.33;25.17;;;4.80;99.90;;;;;;5005014;28;20551;-85
2023/12/01 05:05:15;;;;;;;43.10;23.43;;;4.80;99.90;;;;;;5039274;28;21122;-84
2023/12/01 05:07:42;;;;;;;38.43;20.90;;;4.80;99.90;;;;;;5023519;28;20507;-85
2023/12/01 05:10:15;;;;;;;57.43;22.97;;;4.80;99.90;;;;;;5028095;28;20472;-84
2023/12/01 05:12:49;;;;;;;50.80;21.37;;;4.80;99.90;;;;;;5028133;28;21200;-85
2023/12/01 05:15:16;;;;;;;41.90;22.17;;;4.80;99.90;;;;;;5013608;28;20485;-85
2023/12/01 05:17:48;;;;;;;41.63;20.77;;;4.80;99.90;;;;;;4993152;28;20478;-85
2023/12/01 05:20:18;;;;;;;46.43;22.00;;;4.80;99.90;;;;;;4992165;28;20727;-86
2023/12/01 05:22:47;;;;;;;40.60;19.60;;;4.80;99.90;;;;;;5007714;28;20487;-86
2023/12/01 05:25:16;;;;;;;49.67;23.83;;;4.80;99.90;;;;;;5013461;28;21139;-86
2023/12/01 05:27:47;;;;;;;41.57;21.90;;;4.80;99.90;;;;;;5018811;28;20473;-85
2023/12/01 05:30:15;;;;;;;43.10;21.70;;;4.80;99.90;;;;;;5035095;28;20539;-86
2023/12/01 05:32:44;;;;;;;52.23;22.10;;;4.80;99.90;;;;;;5022965;28;20479;-86
2023/12/01 05:35:11;;;;;;;53.87;20.40;;;4.80;99.90;;;;;;5031595;28;20480;-85
2023/12/01 05:37:40;;;;;;;62.73;22.27;;;4.80;99.90;;;;;;5019726;28;20485;-85
2023/12/01 05:40:09;;;;;;;63.80;22.53;;;4.90;99.90;;;;;;5022843;28;20501;-85
2023/12/01 05:42:41;;;;;;;44.97;21.93;;;4.90;99.90;;;;;;5029771;28;20501;-85
2023/12/01 05:45:11;;;;;;;41.73;19.97;;;4.90;99.90;;;;;;5024748;28;20477;-86
2023/12/01 05:47:42;;;;;;;44.73;19.27;;;4.90;99.90;;;;;;5041553;28;21007;-85
2023/12/01 05:50:13;;;;;;;46.13;20.97;;;4.90;99.90;;;;;;5026218;28;20572;-86
2023/12/01 05:52:41;;;;;;;43.30;21.00;;;4.90;99.90;;;;;;5030711;28;21090;-85
2023/12/01 05:55:14;;;;;;;55.23;21.57;;;4.80;99.90;;;;;;5030345;28;20510;-85
2023/12/01 05:57:43;;;;;;;40.80;20.90;;;4.80;99.90;;;;;;5017435;28;20686;-86
2023/12/01 06:00:13;;;;;;;44.03;19.57;;;;;;;;;;5031992;28;20543;-85
2023/12/01 06:02:40;;;;;;;47.97;19.10;;;4.80;99.90;;;;;;5011556;28;20850;-86
2023/12/01 06:05:08;;;;;;;54.73;23.37;;;4.80;99.90;;;;;;5023935;28;20489;-86
2023/12/01 06:07:36;;;;;;;52.73;19.90;;;4.80;99.90;;;;;;5023049;28;20846;-85
2023/12/01 06:10:05;;;;;;;47.47;19.40;;;4.70;99.90;;;;;;5028653;28;20504;-85
2023/12/01 06:12:32;;;;;;;43.77;19.93;;;4.70;99.90;;;;;;5028711;28;20515;-85
2023/12/01 06:15:01;;;;;;;40.47;20.63;;;4.70;99.90;;;;;;5023758;28;20488;-86
2023/12/01 06:17:28;;;;;;;40.43;18.23;;;4.70;99.90;;;;;;5017650;28;20542;-85
2023/12/01 06:19:55;;;;;;;41.40;19.87;;;4.70;99.90;;;;;;5032800;28;20480;-85
2023/12/01 06:22:22;;;;;;;36.30;18.00;;;4.70;99.90;;;;;;5022238;28;20475;-86
2023/12/01 06:24:49;;;;;;;40.87;20.00;;;4.70;99.90;;;;;;5010661;28;20489;-86
2023/12/01 06:27:16;;;;;;;47.10;21.40;;;4.70;99.90;;;;;;5027952;28;20542;-85
2023/12/01 06:29:44;;;;;;;44.80;20.47;;;4.80;99.90;;;;;;5034679;28;20823;-85
2023/12/01 06:32:13;;;;;;;36.87;17.80;;;4.80;99.90;;;;;;5020299;28;20551;-84
2023/12/01 06:34:42;;;;;;;41.23;19.67;;;4.80;99.90;;;;;;5029893;28;20558;-86
2023/12/01 06:37:09;;;;;;;48.90;18.23;;;4.80;99.90;;;;;;5021013;28;20489;-86
2023/12/01 06:39:36;;;;;;;38.93;17.80;;;4.70;99.90;;;;;;5032017;28;20481;-85
2023/12/01 06:42:03;;;;;;;79.57;20.53;;;4.70;99.90;;;;;;5015253;28;21070;-85
2023/12/01 06:44:34;;;;;;;40.97;16.90;;;4.70;99.90;;;;;;5016662;28;20487;-86
2023/12/01 06:47:02;;;;;;;47.97;19.90;;;4.80;99.90;;;;;;5021906;28;21055;-85
2023/12/01 06:49:30;;;;;;;36.53;18.13;;;4.70;99.90;;;;;;5016928;28;20539;-86
2023/12/01 06:51:59;;;;;;;52.83;19.17;;;4.70;99.90;;;;;;5024071;28;20478;-85
2023/12/01 06:54:27;;;;;;;39.80;17.50;;;4.70;99.90;;;;;;5022518;28;21453;-86
2023/12/01 06:56:55;;;;;;;44.60;19.57;;;4.70;99.90;;;;;;5026845;28;20567;-85
2023/12/01 06:59:22;;;;;;;40.70;18.50;;;4.70;99.90;;;;;;5013864;28;20538;-84
2023/12/01 07:01:49;;;;;;;54.70;19.80;;;4.70;99.90;;;;;;5034946;28;20973;-85
2023/12/01 07:04:16;;;;;;;39.10;17.53;;;4.70;99.90;;;;;;5017908;28;20483;-85
2023/12/01 07:06:46;;;;;;;42.50;18.17;;;4.70;99.90;;;;;;5015547;28;20476;-85
2023/12/01 07:09:17;;;;;;;107.80;20.17;;;4.70;99.90;;;;;;5025095;28;20483;-84
2023/12/01 07:11:46;;;;;;;47.37;19.17;;;4.70;99.90;;;;;;5028284;28;20477;-84
2023/12/01 07:14:13;;;;;;;44.90;18.07;;;4.70;99.90;;;;;;5036941;28;20877;-85
2023/12/01 07:16:42;;;;;;;47.17;19.40;;;4.70;99.90;;;;;;5003059;28;20472;-85
2023/12/01 07:19:10;;;;;;;47.97;18.87;;;4.80;99.90;;;;;;5027824;28;20476;-85
2023/12/01 07:21:37;;;;;;;43.07;18.27;;;4.80;99.90;;;;;;5028336;28;20481;-85
2023/12/01 07:24:08;;;;;;;52.53;18.10;;;4.80;99.90;;;;;;5021982;28;20543;-85
2023/12/01 07:26:35;;;;;;;39.27;17.53;;;4.80;99.90;;;;;;5007457;28;20906;-84
2023/12/01 07:29:04;;;;;;;39.17;18.60;;;4.80;99.90;;;;;;5013570;28;20990;-85
2023/12/01 07:31:31;;;;;;;41.03;18.50;;;4.80;99.90;;;;;;5025424;28;20481;-83
2023/12/01 07:33:58;;;;;;;45.70;17.70;;;4.80;99.90;;;;;;5016380;28;20484;-85
2023/12/01 07:36:25;;;;;;;37.60;17.00;;;4.80;99.90;;;;;;5012481;28;20966;-85
2023/12/01 07:38:52;;;;;;;35.00;17.63;;;4.80;99.90;;;;;;5034624;28;20876;-85
2023/12/01 07:41:21;;;;;;;42.30;18.27;;;4.80;99.90;;;;;;5017390;28;20625;-83
2023/12/01 07:43:52;;;;;;;55.90;18.50;;;4.80;99.90;;;;;;5036870;28;20491;-85
2023/12/01 07:46:20;;;;;;;42.13;18.73;;;4.80;99.90;;;;;;5034498;28;20575;-85
2023/12/01 07:48:47;;;;;;;40.50;16.27;;;4.80;99.90;;;;;;5027732;28;20483;-84
2023/12/01 07:51:13;;;;;;;58.77;17.20;;;4.90;99.90;;;;;;5025692;28;20480;-85
2023/12/01 07:53:40;;;;;;;54.10;17.53;;;4.80;99.90;;;;;;5031520;28;20558;-85
2023/12/01 07:56:10;;;;;;;41.60;17.70;;;4.80;99.90;;;;;;5037160;28;20554;-85
2023/12/01 07:58:38;;;;;;;38.60;19.13;;;4.80;99.90;;;;;;5028350;28;21067;-85
2023/12/01 08:01:06;;;;;;;45.30;18.20;;;4.90;99.90;;;;;;5027654;28;20489;-84
2023/12/01 08:03:33;;;;;;;44.53;19.40;;;4.90;99.90;;;;;;5014973;28;20991;-85
2023/12/01 08:06:00;;;;;;;40.93;16.60;;;4.90;99.90;;;;;;5024177;28;20477;-85
2023/12/01 08:08:26;;;;;;;37.53;17.10;;;4.90;99.90;;;;;;5025764;28;20477;-84
2023/12/01 08:10:53;;;;;;;46.23;17.47;;;4.80;99.90;;;;;;5026723;28;21020;-84
2023/12/01 08:13:24;;;;;;;38.47;15.30;;;4.80;99.90;;;;;;5018753;28;21029;-84
2023/12/01 08:15:53;;;;;;;36.73;15.87;;;4.80;99.90;;;;;;5022065;28;20473;-84
2023/12/01 08:18:20;;;;;;;60.50;17.03;;;4.80;99.90;;;;;;5019798;28;20527;-84
2023/12/01 08:20:47;;;;;;;29.57;15.10;;;4.80;99.90;;;;;;5026604;28;20492;-85
2023/12/01 08:23:14;;;;;;;39.07;17.47;;;4.70;99.90;;;;;;5036346;28;20481;-84
2023/12/01 08:25:42;;;;;;;40.37;16.40;;;4.70;99.90;;;;;;5032638;28;20487;-84
2023/12/01 08:28:09;;;;;;;38.10;15.93;;;4.70;99.90;;;;;;5029385;28;21268;-84
2023/12/01 08:30:36;;;;;;;37.30;15.20;;;4.70;99.90;;;;;;5017073;28;20892;-84
2023/12/01 08:33:05;;;;;;;34.80;16.87;;;4.80;99.90;;;;;;5020308;28;20969;-85
2023/12/01 08:35:32;;;;;;;31.17;15.40;;;4.80;99.90;;;;;;5021972;28;20564;-84
2023/12/01 08:37:59;;;;;;;35.90;16.40;;;4.80;99.90;;;;;;5021706;28;20485;-84
2023/12/01 08:40:26;;;;;;;46.47;17.87;;;4.80;99.90;;;;;;5027958;28;20477;-84
2023/12/01 08:42:53;;;;;;;38.90;15.83;;;4.80;99.90;;;;;;5017291;28;20468;-84
2023/12/01 08:45:20;;;;;;;38.17;16.70;;;4.70;99.90;;;;;;5013905;28;20484;-84
2023/12/01 08:47:48;;;;;;;42.40;15.97;;;4.70;99.90;;;;;;5039128;28;20893;-85
2023/12/01 08:50:19;;;;;;;28.53;14.10;;;4.70;99.90;;;;;;5025414;28;20542;-85
2023/12/01 08:52:47;;;;;;;36.17;13.77;;;4.70;99.90;;;;;;5015621;28;20484;-85
2023/12/01 08:55:14;;;;;;;30.73;13.83;;;4.70;99.90;;;;;;5027836;28;20540;-84
2023/12/01 08:57:41;;;;;;;29.47;14.23;;;4.60;99.90;;;;;;5029091;28;20474;-84
2023/12/01 09:00:12;;;;;;;38.37;15.07;;;4.70;99.90;;;;;;5025387;28;20481;-83
2023/12/01 09:02:38;;;;;;;36.20;14.90;;;4.60;99.90;;;;;;5024288;28;21203;-84
2023/12/01 09:05:06;;;;;;;31.57;15.67;;;4.60;99.90;;;;;;5031607;28;20992;-84
2023/12/01 09:07:34;;;;;;;35.10;14.30;;;4.70;99.90;;;;;;5028392;28;20969;-84
2023/12/01 09:10:01;;;;;;;32.87;14.37;;;4.70;99.90;;;;;;5019861;28;20542;-85
2023/12/01 09:12:28;;;;;;;32.40;15.80;;;4.70;99.90;;;;;;5030640;28;20474;-85
2023/12/01 09:14:55;;;;;;;25.37;13.03;;;4.80;99.90;;;;;;5024733;28;20484;-84
2023/12/01 09:17:22;;;;;;;28.67;14.40;;;4.80;99.90;;;;;;5023264;28;20835;-85
2023/12/01 09:19:49;;;;;;;26.27;12.57;;;;;;;;;;5039361;28;21170;-84
2023/12/01 09:22:16;;;;;;;32.30;13.50;;;4.80;99.90;;;;;;5018879;28;20910;-85
2023/12/01 09:24:45;;;;;;;26.47;12.93;;;4.80;99.90;;;;;;5031017;28;20509;-84
2023/12/01 09:27:12;;;;;;;53.67;14.20;;;4.80;99.90;;;;;;5025927;28;20489;-84
2023/12/01 09:29:39;;;;;;;22.93;11.43;;;4.80;99.90;;;;;;5026865;28;20543;-85
2023/12/01 09:32:06;;;;;;;21.00;11.50;;;4.80;99.90;;;;;;5026970;28;20476;-84
2023/12/01 09:34:33;;;;;;;27.60;11.30;;;4.70;99.90;;;;;;5026560;28;20531;-84
2023/12/01 09:37:00;;;;;;;17.87;10.37;;;4.70;99.90;;;;;;5029832;28;20990;-85
2023/12/01 09:39:27;;;;;;;21.30;10.47;;;4.60;99.90;;;;;;5018389;28;20531;-84
2023/12/01 09:41:58;;;;;;;21.37;11.83;;;4.60;99.90;;;;;;5001799;28;21143;-84
2023/12/01 09:44:26;;;;;;;17.67;8.87;;;4.60;99.90;;;;;;5019742;28;20547;-84
2023/12/01 09:46:58;;;;;;;16.93;10.30;;;4.60;99.90;;;;;;5024100;28;20487;-84
2023/12/01 09:49:25;;;;;;;18.30;9.30;;;4.60;99.90;;;;;;5013288;28;20500;-84
2023/12/01 09:51:52;;;;;;;18.77;10.77;;;4.60;99.90;;;;;;5020449;28;20934;-85
2023/12/01 09:54:19;;;;;;;28.07;11.80;;;;;;;;;;5030270;28;20483;-85
2023/12/01 09:56:46;;;;;;;31.80;10.90;;;4.60;99.90;;;;;;5031884;28;20987;-85
2023/12/01 09:59:16;;;;;;;18.23;8.60;;;4.60;99.90;;;;;;5033073;28;20910;-83
2023/12/01 10:01:44;;;;;;;35.23;12.30;;;4.60;99.90;;;;;;5033762;28;20491;-84
2023/12/01 10:04:11;;;;;;;17.17;9.80;;;4.90;99.90;;;;;;5025787;28;20472;-84
2023/12/01 10:06:38;;;;;;;19.50;10.30;;;4.70;99.90;;;;;;5021138;28;20480;-84
2023/12/01 10:09:09;;;;;;;29.83;12.57;;;4.70;99.90;;;;;;5020234;28;20977;-84
2023/12/01 10:11:37;;;;;;;15.07;9.73;;;4.70;99.90;;;;;;5021307;28;20511;-85
2023/12/01 10:14:07;;;;;;;19.73;11.90;;;4.70;99.90;;;;;;5002460;28;20900;-84
2023/12/01 10:16:38;;;;;;;31.43;11.80;;;4.80;99.90;;;;;;5020981;28;20468;-84
2023/12/01 10:19:06;;;;;;;19.80;11.43;;;4.80;99.90;;;;;;4998072;28;20499;-84
2023/12/01 10:21:43;;;;;;;21.40;10.90;;;4.80;99.90;;;;;;5017473;28;20480;-84
2023/12/01 10:24:20;;;;;;;34.30;12.67;;;5.00;99.90;;;;;;5018350;28;20475;-83
2023/12/01 10:26:48;;;;;;;54.60;13.00;;;5.00;99.90;;;;;;5016511;28;20481;-84
2023/12/01 10:29:28;;;;;;;47.40;12.93;;;5.00;99.90;;;;;;5028600;28;20478;-84
2023/12/01 10:31:57;;;;;;;20.00;11.77;;;5.00;99.90;;;;;;5023915;28;21272;-84
2023/12/01 10:34:25;;;;;;;22.70;14.10;;;5.00;99.90;;;;;;5009512;28;20484;-84
2023/12/01 10:36:53;;;;;;;28.83;13.27;;;5.10;99.90;;;;;;5031759;28;20504;-84
2023/12/01 10:39:24;;;;;;;25.47;13.77;;;5.10;99.90;;;;;;5019248;28;20477;-85
2023/12/01 10:41:51;;;;;;;16.70;11.87;;;5.10;99.90;;;;;;5016129;28;20489;-84
2023/12/01 10:44:19;;;;;;;21.27;13.10;;;5.10;99.90;;;;;;5014850;28;21198;-84
2023/12/01 10:46:47;;;;;;;26.93;13.23;;;5.00;99.90;;;;;;5021582;28;20499;-84
2023/12/01 10:49:17;;;;;;;23.23;12.03;;;5.00;99.90;;;;;;5022599;28;20472;-84
2023/12/01 10:51:45;;;;;;;33.70;13.57;;;5.00;99.90;;;;;;5026027;28;20480;-85
2023/12/01 10:54:12;;;;;;;25.20;13.70;;;5.00;99.90;;;;;;5037870;28;20488;-84
2023/12/01 10:56:59;;;;;;;43.57;14.80;;;5.00;99.90;;;;;;5026663;28;20484;-85
2023/12/01 10:59:27;;;;;;;22.60;14.67;;;5.00;99.90;;;;;;5033364;28;20472;-84
2023/12/01 11:01:56;;;;;;;27.10;15.57;;;4.90;99.90;;;;;;5029713;28;20480;-84
2023/12/01 11:04:26;;;;;;;37.90;14.40;;;4.90;99.90;;;;;;5028564;28;20497;-84
2023/12/01 11:07:20;;;;;;;28.87;15.17;;;4.90;99.90;;;;;;5028454;28;20576;-85
2023/12/01 11:10:01;;;;;;;30.13;15.43;;;4.90;99.90;;;;;;5017115;28;20476;-85
2023/12/01 11:12:38;;;;;;;37.03;15.50;;;4.80;99.90;;;;;;5031210;28;20536;-85
2023/12/01 11:15:14;;;;;;;39.10;17.53;;;4.80;99.90;;;;;;5029063;28;20634;-84
2023/12/01 11:17:41;;;;;;;30.63;14.63;;;4.80;99.90;;;;;;5003710;28;20575;-84
2023/12/01 11:20:34;;;;;;;26.67;15.03;;;4.80;99.90;;;;;;5020021;28;20968;-84
2023/12/01 11:23:06;;;;;;;30.30;15.23;;;4.80;99.90;;;;;;5026514;28;20525;-84
2023/12/01 11:25:43;;;;;;;22.53;13.97;;;4.80;99.90;;;;;;5013810;28;20944;-84
2023/12/01 11:28:20;;;;;;;30.70;15.83;;;4.80;99.90;;;;;;5011047;28;20484;-84
2023/12/01 11:31:08;;;;;;;56.93;15.77;;;4.80;99.90;;;;;;5031231;28;21000;-84
2023/12/01 11:33:39;;;;;;;25.07;14.07;;;4.80;99.90;;;;;;5030943;28;20480;-84
2023/12/01 11:36:25;;;;;;;26.53;13.20;;;4.70;99.90;;;;;;5020412;28;20480;-84
2023/12/01 11:39:14;;;;;;;22.80;13.17;;;4.60;99.90;;;;;;5003904;28;20519;-84
2023/12/01 11:41:51;;;;;;;26.27;15.90;;;4.60;99.90;;;;;;5026145;28;20567;-85
2023/12/01 11:44:23;;;;;;;23.83;14.97;;;4.60;99.90;;;;;;5023636;28;20487;-84
2023/12/01 11:46:55;;;;;;;38.43;17.07;;;4.70;99.90;;;;;;5027653;28;20960;-83
2023/12/01 11:49:23;;;;;;;35.33;17.73;;;4.70;99.90;;;;;;5024522;28;20808;-84
2023/12/01 11:51:52;;;;;;;36.30;17.37;;;4.70;99.90;;;;;;5034160;28;21115;-84
2023/12/01 11:54:19;;;;;;;29.33;19.90;;;4.70;99.90;;;;;;5011038;28;21074;-84
2023/12/01 11:56:50;;;;;;;25.60;14.97;;;4.60;99.90;;;;;;5030424;28;20489;-84
2023/12/01 11:59:17;;;;;;;38.23;21.53;;;4.60;99.90;;;;;;5020148;28;20485;-85
2023/12/01 12:01:45;;;;;;;30.17;18.23;;;4.60;99.90;;;;;;5021232;28;20485;-84
2023/12/01 12:04:16;;;;;;;20.93;11.90;;;4.60;99.90;;;;;;5013438;28;20480;-84
2023/12/01 12:06:43;;;;;;;35.93;16.60;;;4.60;99.90;;;;;;5025354;28;20484;-84
2023/12/01 12:09:17;;;;;;;25.97;12.30;;;4.60;99.90;;;;;;5024898;28;20468;-84
2023/12/01 12:11:44;;;;;;;27.07;14.77;;;4.50;99.90;;;;;;5022354;28;20566;-84
2023/12/01 12:14:12;;;;;;;18.50;12.40;;;4.50;99.90;;;;;;5020672;28;20481;-84
2023/12/01 12:16:39;;;;;;;21.70;13.13;;;4.50;99.90;;;;;;4983769;28;20571;-84
2023/12/01 12:19:06;;;;;;;89.20;18.30;;;4.60;99.90;;;;;;5023841;28;20561;-84
2023/12/01 12:21:33;;;;;;;22.30;13.27;;;4.50;99.90;;;;;;5018977;28;21318;-85
2023/12/01 12:24:01;;;;;;;24.90;14.17;;;4.50;99.90;;;;;;5031002;28;20484;-84
2023/12/01 12:26:30;;;;;;;41.03;15.07;;;4.50;99.90;;;;;;5016165;28;20492;-84
2023/12/01 12:28:58;;;;;;;42.73;17.23;;;4.50;99.90;;;;;;5028778;28;20477;-83
2023/12/01 12:31:26;;;;;;;29.47;15.77;;;4.40;99.90;;;;;;5028259;28;20545;-84
2023/12/01 12:33:53;;;;;;;32.50;17.63;;;4.50;99.90;;;;;;5009542;28;20989;-83
2023/12/01 12:36:21;;;;;;;26.03;14.83;;;4.50;99.90;;;;;;5019627;28;20488;-84
2023/12/01 12:38:49;;;;;;;26.10;14.80;;;4.50;99.90;;;;;;5012850;28;20488;-84
2023/12/01 12:41:26;;;;;;;23.73;12.30;;;4.50;99.90;;;;;;5001143;28;20877;-83
2023/12/01 12:43:56;;;;;;;25.07;14.87;;;4.50;99.90;;;;;;4996554;28;20534;-85
2023/12/01 12:46:23;;;;;;;37.70;15.70;;;4.50;99.90;;;;;;5013275;28;20484;-84